Alder Bend, New York
Current Conditions -  °F | °C
As of 3:53 PM on Monday 24 Nov 2014 (Local Time) from KPBG Reporting Station
Overcast Overcast  
Wind Chill: 66°   Ceiling: 9500
Heat Index: 66°   Visibility: 10mi
Dew Point: 55°   Wind: 20mph
Humidity: 68%   Direction: 170°S
Pressure: 29.33"   Gusts: 25mph
Location:  44.8543°N, 73.663°W
Report Text: KPBG 242053Z AUTO 17017G22KT 10SM FEW065 OVC095 19/13 A2933 RMK AO2 SLP931 T01890128 56015
Loading
Personal Weather Stations






























Interactive Weather Map New forecast layout! Learn more

10-Day Weather Forecast

Advertisements
Track Severe Weather on mobile